createdAt,value
2022-09-24T00:02:04.048Z,8.96
2022-09-24T00:04:32.203Z,8.95
2022-09-24T00:07:00.123Z,8.87
2022-09-24T00:09:28.069Z,8.86
2022-09-24T00:11:55.998Z,8.83
2022-09-24T00:14:24.415Z,8.79
2022-09-24T00:16:52.389Z,8.88
2022-09-24T00:19:20.285Z,8.89
2022-09-24T00:21:48.210Z,8.99
2022-09-24T00:24:36.112Z,9.11
2022-09-24T00:27:06.361Z,9.15
2022-09-24T00:29:36.024Z,9.18
2022-09-24T00:32:06.245Z,9.19
2022-09-24T00:34:34.570Z,9.21
2022-09-24T00:37:02.644Z,9.21
2022-09-24T00:39:30.578Z,9.20
2022-09-24T00:41:58.695Z,9.20
2022-09-24T00:44:48.380Z,9.24
2022-09-24T00:47:36.687Z,9.24
2022-09-24T00:50:08.254Z,9.28
2022-09-24T00:52:42.504Z,9.31
2022-09-24T00:55:12.060Z,9.29
2022-09-24T00:57:42.127Z,9.28
2022-09-24T01:00:11.112Z,9.24
2022-09-24T01:02:42.486Z,9.19
2022-09-24T01:05:10.392Z,9.16
2022-09-24T01:07:38.611Z,9.11
2022-09-24T01:10:06.986Z,9.08
2022-09-24T01:12:50.441Z,9.06
2022-09-24T01:15:32.114Z,9.07
2022-09-24T01:18:15.254Z,9.06
2022-09-24T01:21:02.871Z,9.08
2022-09-24T01:23:52.659Z,9.07
2022-09-24T01:26:48.183Z,9.08
2022-09-24T01:29:23.943Z,9.07
2022-09-24T01:32:22.828Z,9.09
2022-09-24T01:34:58.169Z,9.07
2022-09-24T01:37:31.855Z,9.10
2022-09-24T01:40:01.722Z,9.10
2022-09-24T01:42:31.809Z,9.07
2022-09-24T01:45:02.626Z,9.04
2022-09-24T01:47:35.344Z,9.01
2022-09-24T01:50:04.872Z,9.00
2022-09-24T01:52:41.297Z,9.08
2022-09-24T01:55:16.070Z,9.09
2022-09-24T01:57:49.064Z,9.08
2022-09-24T02:00:22.123Z,9.09
2022-09-24T02:03:08.988Z,9.09
2022-09-24T02:05:44.582Z,9.07
2022-09-24T02:08:18.981Z,9.07
2022-09-24T02:11:06.285Z,9.08
2022-09-24T02:13:40.352Z,9.11
2022-09-24T02:16:15.163Z,9.10
2022-09-24T02:18:48.065Z,9.09
2022-09-24T02:21:19.511Z,9.05
2022-09-24T02:23:53.797Z,9.05
2022-09-24T02:26:22.210Z,9.02
2022-09-24T02:28:50.286Z,8.98
2022-09-24T02:31:27.415Z,8.98
2022-09-24T02:34:17.477Z,8.98
2022-09-24T02:36:45.606Z,8.87
2022-09-24T02:39:13.673Z,8.82
2022-09-24T02:41:47.626Z,8.77
2022-09-24T02:44:16.764Z,8.78
2022-09-24T02:46:45.968Z,8.86
2022-09-24T02:49:14.669Z,8.93
2022-09-24T02:51:43.998Z,8.97
2022-09-24T02:54:12.261Z,8.98
2022-09-24T02:56:40.441Z,8.96
2022-09-24T02:59:09.613Z,9.01
2022-09-24T03:01:37.622Z,8.99
2022-09-24T03:04:06.447Z,8.95
2022-09-24T03:06:34.926Z,8.91
2022-09-24T03:09:04.252Z,8.88
2022-09-24T03:11:33.331Z,8.88
2022-09-24T03:14:02.289Z,8.88
2022-09-24T03:16:30.434Z,8.88
2022-09-24T03:18:58.358Z,8.84
2022-09-24T03:21:26.520Z,8.81
2022-09-24T03:23:54.353Z,8.78
2022-09-24T03:26:22.323Z,8.73
2022-09-24T03:28:50.435Z,8.71
2022-09-24T03:31:18.821Z,8.72
2022-09-24T03:33:49.470Z,8.73
2022-09-24T03:36:21.052Z,8.73
2022-09-24T03:38:51.443Z,8.74
2022-09-24T03:41:19.529Z,8.75
2022-09-24T03:43:47.986Z,8.71
2022-09-24T03:46:17.456Z,8.69
2022-09-24T03:48:47.470Z,8.66
2022-09-24T03:51:18.926Z,8.64
2022-09-24T03:53:48.712Z,8.59
2022-09-24T03:56:16.856Z,8.56
2022-09-24T03:58:48.210Z,8.54
2022-09-24T04:01:21.687Z,8.50
2022-09-24T04:03:50.861Z,8.46
2022-09-24T04:06:24.883Z,8.44
2022-09-24T04:08:54.410Z,8.40
2022-09-24T04:11:24.149Z,8.37
2022-09-24T04:13:52.484Z,8.32
2022-09-24T04:16:20.549Z,8.30
2022-09-24T04:18:48.976Z,8.27
2022-09-24T04:21:18.436Z,8.23
2022-09-24T04:23:46.653Z,8.20
2022-09-24T04:26:15.357Z,8.17
2022-09-24T04:28:43.459Z,8.11
2022-09-24T04:31:11.381Z,8.06
2022-09-24T04:33:39.316Z,7.97
2022-09-24T04:36:07.282Z,7.88
2022-09-24T04:38:35.167Z,7.79
2022-09-24T04:41:07.933Z,7.76
2022-09-24T04:43:37.193Z,7.76
2022-09-24T04:46:06.856Z,7.76
2022-09-24T04:48:36.477Z,7.74
2022-09-24T04:51:08.849Z,7.74
2022-09-24T04:53:37.523Z,7.75
2022-09-24T04:56:12.209Z,7.75
2022-09-24T04:58:40.686Z,7.78
2022-09-24T05:01:09.490Z,7.80
2022-09-24T05:03:37.405Z,7.85
2022-09-24T05:06:05.430Z,7.87
2022-09-24T05:08:33.341Z,7.87
2022-09-24T05:11:02.549Z,7.84
2022-09-24T05:13:30.717Z,7.81
2022-09-24T05:16:01.176Z,7.80
2022-09-24T05:18:29.456Z,7.87
2022-09-24T05:20:57.877Z,7.85
2022-09-24T05:23:25.835Z,7.82
2022-09-24T05:26:12.374Z,7.80
2022-09-24T05:28:40.658Z,7.75
2022-09-24T05:31:09.312Z,7.78
2022-09-24T05:33:38.064Z,7.75
2022-09-24T05:36:06.255Z,7.78
2022-09-24T05:38:34.199Z,7.82
2022-09-24T05:41:02.114Z,7.90
2022-09-24T05:43:31.871Z,7.97
2022-09-24T05:46:00.027Z,7.99
2022-09-24T05:48:28.369Z,7.91
2022-09-24T05:50:56.582Z,7.89
2022-09-24T05:53:24.530Z,7.88
2022-09-24T05:55:52.887Z,7.84
2022-09-24T05:58:20.803Z,7.92
2022-09-24T06:00:49.376Z,7.97
2022-09-24T06:03:19.008Z,8.06
2022-09-24T06:05:49.953Z,8.09
2022-09-24T06:08:19.625Z,8.13
2022-09-24T06:10:48.716Z,8.21
2022-09-24T06:13:20.989Z,8.26
2022-09-24T06:15:48.955Z,8.33
2022-09-24T06:18:17.243Z,8.41
2022-09-24T06:20:47.154Z,8.46
2022-09-24T06:23:15.098Z,8.54
2022-09-24T06:25:43.522Z,8.60
2022-09-24T06:28:11.478Z,8.62
2022-09-24T06:30:39.959Z,8.68
2022-09-24T06:33:10.848Z,8.77
2022-09-24T06:35:41.045Z,8.89
2022-09-24T06:38:12.179Z,8.98
2022-09-24T06:40:41.523Z,9.10
2022-09-24T06:43:11.515Z,9.26
2022-09-24T06:45:42.954Z,9.42
2022-09-24T06:48:12.925Z,9.53
2022-09-24T06:50:43.457Z,9.66
2022-09-24T06:53:12.401Z,9.77
2022-09-24T06:55:40.839Z,9.89
2022-09-24T06:58:15.078Z,10.03
2022-09-24T07:00:43.716Z,10.19
2022-09-24T07:03:16.787Z,10.35
2022-09-24T07:05:44.723Z,10.45
2022-09-24T07:08:12.946Z,10.56
2022-09-24T07:10:46.737Z,10.65
2022-09-24T07:13:15.790Z,10.74
2022-09-24T07:15:44.531Z,10.81
2022-09-24T07:18:13.101Z,10.93
2022-09-24T07:20:41.978Z,11.02
2022-09-24T07:23:12.100Z,11.13
2022-09-24T07:25:40.221Z,11.22
2022-09-24T07:28:11.221Z,11.33
2022-09-24T07:30:39.976Z,11.45
2022-09-24T07:33:08.457Z,11.58
2022-09-24T07:35:40.591Z,11.70
2022-09-24T07:38:14.325Z,11.88
2022-09-24T07:40:42.547Z,12.03
2022-09-24T07:43:14.003Z,12.19
2022-09-24T07:45:43.095Z,12.33
2022-09-24T07:48:13.003Z,12.51
2022-09-24T07:50:42.785Z,12.69
2022-09-24T07:53:12.754Z,12.88
2022-09-24T07:55:42.026Z,13.05
2022-09-24T07:58:14.427Z,13.18
2022-09-24T08:00:42.979Z,13.32
2022-09-24T08:03:11.014Z,13.47
2022-09-24T08:05:45.743Z,13.59
2022-09-24T08:08:15.021Z,13.73
2022-09-24T08:10:43.632Z,13.82
2022-09-24T08:13:12.254Z,13.89
2022-09-24T08:15:41.006Z,14.00
2022-09-24T08:18:09.790Z,14.08
2022-09-24T08:20:39.382Z,14.18
2022-09-24T08:23:12.926Z,14.21
2022-09-24T08:25:40.873Z,14.30
2022-09-24T08:28:12.367Z,14.39
2022-09-24T08:30:40.601Z,14.48
2022-09-24T08:33:09.421Z,14.59
2022-09-24T08:35:40.281Z,14.59
2022-09-24T08:38:09.327Z,14.70
2022-09-24T08:40:47.115Z,14.82
2022-09-24T08:43:23.870Z,14.91
2022-09-24T08:46:18.907Z,15.01
2022-09-24T08:48:51.850Z,15.12
2022-09-24T08:51:22.803Z,15.24
2022-09-24T08:54:05.731Z,15.31
2022-09-24T08:56:37.475Z,15.38
2022-09-24T08:59:24.342Z,15.45
2022-09-24T09:02:21.214Z,15.52
2022-09-24T09:04:58.369Z,15.65
2022-09-24T09:07:32.368Z,15.75
2022-09-24T09:10:29.231Z,15.80
2022-09-24T09:13:20.847Z,15.77
2022-09-24T09:15:57.711Z,15.83
2022-09-24T09:18:33.281Z,15.99
2022-09-24T09:21:18.016Z,16.12
2022-09-24T09:23:51.260Z,16.26
2022-09-24T09:26:20.712Z,16.31
2022-09-24T09:28:49.407Z,16.33
2022-09-24T09:31:46.106Z,16.36
2022-09-24T09:35:10.406Z,16.44
2022-09-24T09:39:09.516Z,16.47
2022-09-24T09:47:27.570Z,16.67
2022-09-24T09:51:25.496Z,16.86
2022-09-24T10:02:44.457Z,17.25
2022-09-24T10:14:29.744Z,17.35
2022-09-24T10:26:04.118Z,17.44
2022-09-24T10:29:51.432Z,17.63
2022-09-24T10:41:38.955Z,17.85
2022-09-24T10:45:15.893Z,17.84
2022-09-24T10:57:28.771Z,18.41
2022-09-24T11:01:20.142Z,18.44
2022-09-24T11:13:40.859Z,18.54
2022-09-24T11:17:28.181Z,18.76
2022-09-24T11:29:17.598Z,19.28
2022-09-24T11:33:08.061Z,19.21
2022-09-24T11:46:11.601Z,19.03
2022-09-24T11:58:35.395Z,19.13
2022-09-24T12:02:16.778Z,19.09
2022-09-24T12:14:26.650Z,18.88
2022-09-24T12:18:04.736Z,18.83
2022-09-24T12:21:41.125Z,18.88
2022-09-24T12:33:53.621Z,19.35
2022-09-24T12:45:25.052Z,19.35
2022-09-24T12:49:14.218Z,19.56
2022-09-24T12:57:13.879Z,19.92
2022-09-24T13:12:43.071Z,20.08
2022-09-24T13:16:29.217Z,19.98
2022-09-24T13:28:39.299Z,19.18
2022-09-24T13:32:33.490Z,18.65
2022-09-24T13:40:47.247Z,18.53
2022-09-24T13:44:34.590Z,18.51
2022-09-24T13:55:56.961Z,18.69
2022-09-24T13:59:46.024Z,18.83
2022-09-24T14:11:29.425Z,19.27
2022-09-24T14:15:09.246Z,19.14
2022-09-24T14:26:57.819Z,19.02
2022-09-24T14:30:34.160Z,19.03
2022-09-24T14:42:04.039Z,19.18
2022-09-24T14:45:46.907Z,19.23
2022-09-24T15:00:40.131Z,18.99
2022-09-24T15:04:20.734Z,18.85
2022-09-24T15:19:37.354Z,18.67
2022-09-24T15:23:16.774Z,18.43
2022-09-24T15:40:56.624Z,17.43
2022-09-24T15:56:00.643Z,16.28
2022-09-24T15:59:51.252Z,16.04
2022-09-24T16:11:27.095Z,15.24
2022-09-24T16:14:59.622Z,14.92
2022-09-24T16:26:17.495Z,14.14
2022-09-24T16:38:12.955Z,13.50
2022-09-24T16:56:25.797Z,12.52
2022-09-24T17:00:05.119Z,12.36
2022-09-24T17:04:23.373Z,12.31
2022-09-24T17:08:12.239Z,12.17
2022-09-24T17:16:10.431Z,11.93
2022-09-24T17:19:01.929Z,11.80
2022-09-24T17:30:24.985Z,11.69
2022-09-24T17:45:31.119Z,11.29
2022-09-24T17:49:13.373Z,11.21
2022-09-24T18:00:57.137Z,11.15
2022-09-24T18:12:19.880Z,11.12
2022-09-24T18:15:11.671Z,11.00
2022-09-24T18:19:02.384Z,10.91
2022-09-24T18:30:33.498Z,10.69
2022-09-24T18:42:13.778Z,10.65
2022-09-24T18:45:35.496Z,10.62
2022-09-24T18:57:06.980Z,10.65
2022-09-24T19:01:11.399Z,10.60
2022-09-24T19:09:14.034Z,10.56
2022-09-24T19:21:01.088Z,10.40
2022-09-24T19:32:23.134Z,10.22
2022-09-24T19:36:12.141Z,10.11
2022-09-24T19:47:58.351Z,9.81
2022-09-24T19:55:44.211Z,9.68
2022-09-24T20:09:34.520Z,9.73
2022-09-24T20:13:06.234Z,9.73
2022-09-24T20:18:27.328Z,9.76
2022-09-24T20:20:55.747Z,9.76
2022-09-24T20:23:24.282Z,9.75
2022-09-24T20:26:12.448Z,9.77
2022-09-24T20:28:40.779Z,9.80
2022-09-24T20:31:11.378Z,9.81
2022-09-24T20:33:42.739Z,9.82
2022-09-24T20:36:16.532Z,9.84
2022-09-24T20:38:48.329Z,9.86
2022-09-24T20:41:19.585Z,9.85
2022-09-24T20:43:47.623Z,9.85
2022-09-24T20:46:24.403Z,9.86
2022-09-24T20:48:54.190Z,9.86
2022-09-24T20:51:22.176Z,9.88
2022-09-24T20:53:50.583Z,9.94
2022-09-24T20:56:19.041Z,9.97
2022-09-24T20:58:51.240Z,9.94
2022-09-24T21:01:21.447Z,9.89
2022-09-24T21:03:50.495Z,9.84
2022-09-24T21:06:23.730Z,9.79
2022-09-24T21:08:53.042Z,9.75
2022-09-24T21:11:26.813Z,9.69
2022-09-24T21:14:01.587Z,9.63
2022-09-24T21:16:34.970Z,9.62
2022-09-24T21:19:06.091Z,9.61
2022-09-24T21:21:39.140Z,9.60
2022-09-24T21:24:14.107Z,9.61
2022-09-24T21:26:45.360Z,9.63
2022-09-24T21:29:18.248Z,9.63
2022-09-24T21:31:48.003Z,9.62
2022-09-24T22:28:50.134Z,9.71
2022-09-24T22:32:39.207Z,9.71
2022-09-24T22:44:14.947Z,9.51
2022-09-24T22:56:21.685Z,9.34
2022-09-24T23:00:10.706Z,9.19
2022-09-24T23:11:54.336Z,8.94
2022-09-24T23:19:34.527Z,8.77
2022-09-24T23:23:31.632Z,8.56
2022-09-24T23:31:31.448Z,8.34
2022-09-24T23:43:09.978Z,8.22
2022-09-24T23:54:40.913Z,8.08
